Port Acres, Texas
Current Conditions -  °F | °C
As of 12:53 AM on Thursday 18 Dec 2014 (Local Time) from KBPT Reporting Station
Overcast Overcast  
Wind Chill: 15°   Ceiling: 10000
Heat Index: 15°   Visibility: 10mi
Dew Point: 12°   Wind: 8mph
Humidity: 81%   Direction: 90°E
Pressure: 30.12"   Gusts: NA
Location:  29.7569°N, 94.1898°W
Report Text: KBPT 180653Z AUTO 09007KT 10SM OVC100 15/12 A3012 RMK AO2 SLP197 T01500117
Loading
Personal Weather Stations






























Interactive Weather Map New forecast layout! Learn more

10-Day Weather Forecast

Advertisements
Track Severe Weather on mobile